Time;durP1;ratioP1;P1;durP2;ratioP2;P2;SDS_P1;SDS_P2;PMS_P1;PMS_P2;Temp;Humidity;BMP_temperature;BMP_pressure;BME280_temperature;BME280_humidity;BME280_pressure;Samples;Min_cycle;Max_cycle;Signal;HPM_P1;HPM_P2
2021/05/15 00:01:26;;;;;;;5.10;4.60;;;10.50;84.30;;;;;;4992854;28;20053;-79
2021/05/15 00:03:51;;;;;;;5.30;4.80;;;10.40;84.60;;;;;;5010893;28;20050;-79
2021/05/15 00:06:17;;;;;;;6.07;5.47;;;10.30;85.30;;;;;;5011000;28;20029;-81
2021/05/15 00:08:42;;;;;;;6.47;5.87;;;10.30;85.00;;;;;;5009366;28;20073;-78
2021/05/15 00:11:08;;;;;;;8.20;7.07;;;10.30;85.10;;;;;;4993982;28;20112;-78
2021/05/15 00:13:34;;;;;;;6.80;6.20;;;10.40;85.20;;;;;;4989286;28;20419;-79
2021/05/15 00:15:59;;;;;;;6.30;5.70;;;10.40;85.20;;;;;;4999296;28;20033;-79
2021/05/15 00:18:25;;;;;;;6.53;5.90;;;10.50;85.00;;;;;;5010506;28;20037;-79
2021/05/15 00:20:51;;;;;;;6.27;5.67;;;10.60;84.90;;;;;;5009505;28;20474;-79
2021/05/15 00:23:17;;;;;;;5.80;5.30;;;10.60;84.70;;;;;;5006121;28;20042;-79
2021/05/15 00:25:42;;;;;;;5.93;5.03;;;10.70;84.70;;;;;;5008916;28;20034;-79
2021/05/15 00:28:08;;;;;;;7.17;5.50;;;10.70;84.50;;;;;;5008720;28;20494;-79
2021/05/15 00:30:34;;;;;;;6.67;6.07;;;10.70;84.40;;;;;;4993010;28;20485;-79
2021/05/15 00:32:59;;;;;;;6.43;5.53;;;10.70;84.50;;;;;;5008265;28;20120;-80
2021/05/15 00:35:25;;;;;;;5.43;5.00;;;10.70;84.50;;;;;;5007611;28;20037;-80
2021/05/15 00:37:51;;;;;;;5.63;5.03;;;10.60;84.50;;;;;;5009115;28;20462;-80
2021/05/15 00:40:17;;;;;;;5.03;4.63;;;10.60;84.60;;;;;;5008994;28;20034;-79
2021/05/15 00:42:43;;;;;;;5.63;5.00;;;10.50;84.70;;;;;;4992667;28;20030;-78
2021/05/15 00:45:13;;;;;;;5.70;5.20;;;10.50;85.10;;;;;;5009253;28;20113;-80
2021/05/15 00:47:39;;;;;;;5.93;5.40;;;10.40;85.50;;;;;;5007320;28;20034;-80
2021/05/15 00:50:06;;;;;;;10.33;6.60;;;10.30;85.90;;;;;;5000709;28;20088;-80
2021/05/15 00:52:35;;;;;;;7.03;6.43;;;10.20;86.10;;;;;;4996072;28;20041;-81
2021/05/15 00:55:09;;;;;;;7.17;5.83;;;10.20;86.30;;;;;;5012967;28;20038;-80
2021/05/15 00:57:36;;;;;;;6.43;5.83;;;10.10;86.30;;;;;;5010559;28;20156;-81
2021/05/15 01:00:07;;;;;;;8.40;6.30;;;10.10;86.50;;;;;;5013224;28;20041;-81
2021/05/15 01:02:33;;;;;;;6.33;5.73;;;10.10;86.50;;;;;;4995199;28;20414;-81
2021/05/15 01:04:58;;;;;;;6.83;6.23;;;10.20;86.50;;;;;;5011848;28;20046;-80
2021/05/15 01:07:24;;;;;;;7.23;6.53;;;10.20;86.40;;;;;;4983819;28;20478;-81
2021/05/15 01:09:50;;;;;;;7.13;6.13;;;10.30;86.30;;;;;;4993354;28;20119;-80
2021/05/15 01:12:15;;;;;;;9.37;7.13;;;10.40;86.20;;;;;;4996347;28;20030;-81
2021/05/15 01:14:41;;;;;;;6.30;5.70;;;10.50;85.90;;;;;;4995784;28;20120;-80
2021/05/15 01:17:09;;;;;;;7.50;5.50;;;10.60;85.60;;;;;;5012114;28;20033;-81
2021/05/15 01:19:36;;;;;;;7.33;5.70;;;10.70;85.40;;;;;;4996341;28;20100;-81
2021/05/15 01:22:13;;;;;;;6.93;5.03;;;10.80;85.20;;;;;;5012981;28;20041;-80
2021/05/15 01:24:40;;;;;;;6.57;5.60;;;10.80;85.00;;;;;;5002869;28;20026;-79
2021/05/15 01:27:08;;;;;;;7.27;6.50;;;10.80;84.80;;;;;;4994712;28;20034;-80
2021/05/15 01:29:34;;;;;;;6.30;5.70;;;10.70;85.00;;;;;;5007910;28;20025;-79
2021/05/15 01:32:00;;;;;;;8.67;6.07;;;10.70;85.10;;;;;;4995913;28;20038;-80
2021/05/15 01:34:26;;;;;;;6.83;6.27;;;10.60;85.20;;;;;;5010340;28;20033;-80
2021/05/15 01:36:52;;;;;;;7.20;6.50;;;10.60;85.30;;;;;;5008569;28;20644;-80
2021/05/15 01:39:18;;;;;;;7.70;6.23;;;10.60;85.40;;;;;;5006929;28;20060;-79
2021/05/15 01:41:44;;;;;;;7.73;7.03;;;10.60;85.50;;;;;;5011222;28;20117;-79
2021/05/15 01:44:10;;;;;;;7.77;6.00;;;10.50;85.90;;;;;;5012803;28;20181;-80
2021/05/15 01:46:36;;;;;;;6.97;6.27;;;10.60;85.50;;;;;;5010843;28;20029;-81
2021/05/15 01:49:03;;;;;;;7.03;6.40;;;10.60;85.50;;;;;;5012248;28;20378;-82
2021/05/15 01:51:29;;;;;;;7.23;6.53;;;10.70;85.60;;;;;;5011755;28;20034;-86
2021/05/15 01:53:55;;;;;;;9.27;6.77;;;10.70;85.60;;;;;;4995526;28;20597;-84
2021/05/15 01:56:29;;;;;;;7.53;6.90;;;10.60;86.00;;;;;;5011168;28;20030;-87
2021/05/15 01:58:55;;;;;;;8.80;7.10;;;10.60;86.30;;;;;;5012138;28;20022;-87
2021/05/15 02:01:22;;;;;;;7.20;6.63;;;10.70;86.30;;;;;;5012674;28;20128;-87
2021/05/15 02:03:49;;;;;;;8.10;7.40;;;10.70;86.40;;;;;;5012167;28;20057;-85
2021/05/15 02:06:15;;;;;;;7.60;6.90;;;10.70;86.60;;;;;;5015117;28;20022;-83
2021/05/15 02:08:42;;;;;;;8.00;7.27;;;10.70;86.60;;;;;;5012494;28;20493;-85
2021/05/15 02:11:18;;;;;;;7.70;7.00;;;10.60;87.10;;;;;;4996750;28;20030;-83
2021/05/15 02:13:48;;;;;;;7.80;7.00;;;10.60;86.70;;;;;;5011718;28;20088;-83
2021/05/15 02:16:14;;;;;;;7.40;6.60;;;10.60;86.80;;;;;;5013240;28;20028;-83
2021/05/15 02:18:40;;;;;;;7.93;7.13;;;10.60;86.80;;;;;;4996273;28;20026;-83
2021/05/15 02:21:06;;;;;;;7.90;7.20;;;10.60;86.70;;;;;;4996760;28;20030;-83
2021/05/15 02:23:33;;;;;;;8.20;7.40;;;10.60;86.70;;;;;;5013299;28;20042;-83
2021/05/15 02:25:59;;;;;;;8.00;7.20;;;10.60;86.90;;;;;;4994100;28;20149;-82
2021/05/15 02:28:25;;;;;;;8.83;7.93;;;10.60;87.00;;;;;;5010359;28;20176;-81
2021/05/15 02:30:51;;;;;;;7.90;7.20;;;10.50;87.00;;;;;;5011784;28;20100;-81
2021/05/15 02:33:17;;;;;;;8.00;7.20;;;10.50;87.10;;;;;;5008522;28;20023;-81
2021/05/15 02:35:42;;;;;;;7.77;6.97;;;10.50;87.00;;;;;;4992025;28;20054;-82
2021/05/15 02:38:11;;;;;;;8.43;7.53;;;10.50;87.00;;;;;;4994847;28;20068;-81
2021/05/15 02:40:38;;;;;;;7.80;7.07;;;10.50;87.10;;;;;;5011707;28;20069;-81
2021/05/15 02:43:04;;;;;;;8.27;7.13;;;10.50;87.20;;;;;;5012498;28;20044;-80
2021/05/15 02:45:30;;;;;;;7.90;7.10;;;10.50;87.20;;;;;;5011924;28;20440;-79
2021/05/15 02:47:56;;;;;;;10.10;7.50;;;10.50;87.10;;;;;;5000815;28;20026;-81
2021/05/15 02:50:24;;;;;;;7.73;6.97;;;10.40;87.10;;;;;;5012101;28;20092;-80
2021/05/15 02:52:50;;;;;;;8.73;7.93;;;10.40;87.10;;;;;;5009576;28;20037;-80
2021/05/15 02:55:19;;;;;;;7.90;7.20;;;10.40;87.00;;;;;;4992498;28;20034;-80
2021/05/15 02:57:45;;;;;;;9.23;7.67;;;10.30;87.10;;;;;;5005291;28;20458;-82
2021/05/15 03:00:15;;;;;;;8.00;7.30;;;10.20;87.30;;;;;;4999423;28;20018;-80
2021/05/15 03:02:41;;;;;;;8.63;7.63;;;10.20;87.40;;;;;;5012132;28;20149;-80
2021/05/15 03:05:09;;;;;;;8.70;7.37;;;10.10;87.60;;;;;;4994429;28;20140;-81
2021/05/15 03:07:35;;;;;;;8.77;8.00;;;10.10;87.80;;;;;;5010062;28;20057;-80
2021/05/15 03:10:01;;;;;;;8.67;7.77;;;10.00;87.90;;;;;;5010401;28;20057;-81
2021/05/15 03:12:27;;;;;;;8.53;7.83;;;10.00;88.00;;;;;;4993294;28;20026;-80
2021/05/15 03:14:52;;;;;;;8.63;7.77;;;10.10;88.10;;;;;;4990938;28;20118;-80
2021/05/15 03:17:18;;;;;;;7.30;6.60;;;10.20;88.00;;;;;;4996760;28;20084;-79
2021/05/15 03:19:44;;;;;;;10.07;8.03;;;10.30;87.70;;;;;;4997039;28;20026;-82
2021/05/15 03:22:09;;;;;;;8.77;7.57;;;10.40;87.40;;;;;;4990312;28;20034;-79
2021/05/15 03:24:35;;;;;;;10.13;8.00;;;10.50;87.30;;;;;;4992137;28;20424;-80
2021/05/15 03:27:01;;;;;;;11.20;9.17;;;10.60;87.10;;;;;;5007868;28;20048;-79
2021/05/15 03:29:27;;;;;;;11.13;8.87;;;10.60;86.80;;;;;;5000758;28;20038;-80
2021/05/15 03:31:53;;;;;;;11.10;9.10;;;10.70;86.70;;;;;;4975208;28;20026;-80
2021/05/15 03:34:19;;;;;;;12.50;10.20;;;10.70;86.50;;;;;;5000881;28;20041;-79
2021/05/15 03:36:45;;;;;;;16.23;11.70;;;10.80;86.40;;;;;;5010868;28;20025;-79
2021/05/15 03:39:18;;;;;;;13.77;11.53;;;10.80;86.30;;;;;;5009546;28;20104;-79
2021/05/15 03:41:44;;;;;;;15.25;12.50;;;10.80;86.30;;;;;;5012314;28;20026;-79
2021/05/15 03:44:10;;;;;;;16.87;11.97;;;10.80;86.40;;;;;;5009601;28;20108;-80
2021/05/15 03:46:36;;;;;;;20.43;14.40;;;10.90;86.40;;;;;;5011215;28;20025;-80
2021/05/15 03:49:01;;;;;;;21.43;15.03;;;10.90;86.20;;;;;;5010686;28;20120;-79
2021/05/15 03:51:28;;;;;;;19.27;15.43;;;11.00;86.10;;;;;;4994435;28;20053;-79
2021/05/15 03:53:53;;;;;;;27.03;18.23;;;11.00;86.00;;;;;;5008108;28;20133;-81
2021/05/15 03:56:19;;;;;;;30.53;20.77;;;11.10;85.80;;;;;;5011805;28;20510;-79
2021/05/15 03:58:44;;;;;;;28.53;19.90;;;11.20;85.70;;;;;;4994271;28;20030;-79
2021/05/15 04:01:10;;;;;;;37.20;23.57;;;11.20;85.50;;;;;;5009120;28;20739;-79
2021/05/15 04:03:36;;;;;;;34.33;23.33;;;11.20;85.40;;;;;;5012211;28;20128;-79
2021/05/15 04:06:01;;;;;;;40.90;26.67;;;11.20;85.90;;;;;;4993575;28;20048;-79
2021/05/15 04:08:27;;;;;;;37.77;25.70;;;11.20;85.40;;;;;;5003155;28;20034;-79
2021/05/15 04:10:52;;;;;;;43.70;28.07;;;11.30;85.40;;;;;;4992681;28;20372;-82
2021/05/15 04:13:43;;;;;;;41.23;27.30;;;11.30;85.30;;;;;;4974345;28;20034;-78
2021/05/15 04:16:13;;;;;;;36.13;23.40;;;11.30;85.30;;;;;;5006202;28;20034;-80
2021/05/15 04:18:38;;;;;;;40.77;25.77;;;11.40;85.10;;;;;;5017468;28;20149;-79
2021/05/15 04:21:04;;;;;;;41.83;27.03;;;11.50;85.10;;;;;;5005942;28;20125;-79
2021/05/15 04:23:30;;;;;;;46.97;28.57;;;11.50;84.90;;;;;;5004020;28;20038;-78
2021/05/15 04:25:56;;;;;;;51.67;31.23;;;11.50;84.80;;;;;;4989695;28;20109;-83
2021/05/15 04:28:23;;;;;;;41.60;27.30;;;11.50;85.00;;;;;;4995055;28;20085;-79
2021/05/15 04:30:49;;;;;;;44.67;28.47;;;11.50;85.20;;;;;;4991992;28;20041;-79
2021/05/15 04:33:14;;;;;;;45.87;29.30;;;11.50;85.10;;;;;;4966771;28;20265;-79
2021/05/15 04:35:40;;;;;;;45.97;29.17;;;11.60;84.90;;;;;;4994186;28;20022;-78
2021/05/15 04:38:07;;;;;;;50.67;31.63;;;11.60;84.80;;;;;;5008619;28;20079;-80
2021/05/15 04:40:34;;;;;;;52.70;32.60;;;11.60;85.00;;;;;;5009506;28;20033;-79
2021/05/15 04:43:00;;;;;;;45.43;28.83;;;11.60;84.90;;;;;;5010449;28;20042;-81
2021/05/15 04:45:29;;;;;;;47.97;29.43;;;11.60;84.90;;;;;;5026310;28;20093;-79
2021/05/15 04:47:55;;;;;;;52.83;32.00;;;11.60;84.90;;;;;;4993663;28;20052;-79
2021/05/15 04:50:20;;;;;;;46.30;29.73;;;11.70;84.80;;;;;;4989443;28;20545;-80
2021/05/15 04:52:46;;;;;;;60.40;34.97;;;11.70;84.60;;;;;;5003812;28;20038;-79
2021/05/15 04:55:12;;;;;;;53.03;31.87;;;11.70;84.40;;;;;;4970567;28;20027;-79
2021/05/15 04:57:37;;;;;;;46.40;28.80;;;11.70;84.40;;;;;;5000028;28;20109;-80
2021/05/15 05:00:04;;;;;;;52.73;32.70;;;11.70;84.40;;;;;;4993570;28;20506;-82
2021/05/15 05:02:30;;;;;;;55.83;35.57;;;11.70;84.30;;;;;;5008856;28;20066;-79
2021/05/15 05:04:56;;;;;;;54.43;34.23;;;11.70;84.30;;;;;;5010712;28;20026;-78
2021/05/15 05:07:21;;;;;;;56.30;34.83;;;11.70;84.30;;;;;;4989602;28;20030;-79
2021/05/15 05:09:47;;;;;;;60.87;35.80;;;11.70;84.50;;;;;;5006799;28;20061;-79
2021/05/15 05:12:13;;;;;;;60.77;34.70;;;11.70;84.60;;;;;;5025562;28;20034;-79
2021/05/15 05:14:38;;;;;;;64.23;36.10;;;11.70;84.60;;;;;;5029268;28;20049;-79
2021/05/15 05:17:07;;;;;;;72.20;40.33;;;11.70;84.60;;;;;;5008714;28;20029;-84
2021/05/15 05:19:33;;;;;;;73.17;40.83;;;11.80;84.60;;;;;;5014283;28;20044;-80
2021/05/15 05:22:02;;;;;;;67.07;37.70;;;11.70;84.80;;;;;;5014631;28;20034;-80
2021/05/15 05:24:28;;;;;;;66.40;37.33;;;11.70;84.80;;;;;;4998716;28;20062;-79
2021/05/15 05:26:55;;;;;;;61.63;34.17;;;11.70;84.90;;;;;;4989704;28;20121;-79
2021/05/15 05:29:21;;;;;;;68.07;36.87;;;11.70;84.80;;;;;;5001498;28;20041;-79
2021/05/15 05:31:49;;;;;;;58.97;32.57;;;11.80;84.70;;;;;;5019206;28;20042;-79
2021/05/15 05:34:15;;;;;;;68.00;36.57;;;11.80;84.60;;;;;;5004807;28;20034;-80
2021/05/15 05:36:40;;;;;;;66.30;34.67;;;11.80;84.50;;;;;;5004528;28;20037;-79
2021/05/15 05:39:18;;;;;;;77.17;40.13;;;11.80;84.50;;;;;;5008114;28;20037;-82
2021/05/15 05:41:45;;;;;;;76.10;38.57;;;11.90;84.40;;;;;;5024727;28;20076;-80
2021/05/15 05:44:11;;;;;;;66.07;35.53;;;11.80;84.50;;;;;;5026916;28;20038;-80
2021/05/15 05:46:36;;;;;;;65.93;34.63;;;11.80;84.60;;;;;;5028569;28;20037;-79
2021/05/15 05:49:03;;;;;;;63.57;33.63;;;11.90;84.50;;;;;;5033031;28;20037;-79
2021/05/15 05:51:28;;;;;;;67.03;35.93;;;12.00;84.30;;;;;;5030611;28;20018;-81
2021/05/15 05:53:54;;;;;;;55.10;30.80;;;12.00;84.30;;;;;;4991800;28;20084;-81
2021/05/15 05:56:20;;;;;;;67.53;34.60;;;12.10;84.30;;;;;;5031372;28;20045;-80
2021/05/15 05:58:46;;;;;;;62.23;33.87;;;12.10;84.20;;;;;;5007922;28;20034;-77
2021/05/15 06:01:13;;;;;;;66.80;35.73;;;12.10;84.10;;;;;;5012233;28;20054;-83
2021/05/15 06:03:39;;;;;;;59.93;32.00;;;12.10;84.00;;;;;;4995127;28;20046;-81
2021/05/15 06:06:05;;;;;;;64.77;34.80;;;12.20;84.00;;;;;;5013560;28;20482;-78
2021/05/15 06:08:30;;;;;;;55.20;30.00;;;12.20;83.90;;;;;;5000095;28;20089;-78
2021/05/15 06:10:56;;;;;;;60.60;32.80;;;12.20;83.80;;;;;;5007129;28;20041;-79
2021/05/15 06:13:22;;;;;;;58.17;33.57;;;12.30;83.80;;;;;;5011038;28;20041;-78
2021/05/15 06:15:47;;;;;;;64.07;34.13;;;12.40;83.60;;;;;;4995115;28;20038;-78
2021/05/15 06:18:13;;;;;;;66.70;35.70;;;12.40;83.50;;;;;;5011333;28;20129;-81
2021/05/15 06:20:39;;;;;;;60.57;34.97;;;12.50;83.40;;;;;;5030236;28;20064;-79
2021/05/15 06:23:05;;;;;;;59.17;33.53;;;12.50;83.30;;;;;;5009829;28;20042;-81
2021/05/15 06:25:31;;;;;;;50.87;30.73;;;12.50;83.20;;;;;;4991092;28;20061;-82
2021/05/15 06:27:58;;;;;;;55.60;32.37;;;12.60;83.30;;;;;;4995264;28;20057;-82
2021/05/15 06:30:24;;;;;;;61.40;36.13;;;12.60;83.10;;;;;;5007548;28;20062;-82
2021/05/15 06:32:49;;;;;;;58.00;33.73;;;12.70;83.10;;;;;;5007967;28;20053;-83
2021/05/15 06:35:15;;;;;;;56.43;33.63;;;12.70;83.20;;;;;;5006747;28;20038;-83
2021/05/15 06:37:41;;;;;;;62.73;37.43;;;12.80;83.00;;;;;;5012017;28;20040;-80
2021/05/15 06:40:09;;;;;;;57.33;35.43;;;12.80;82.60;;;;;;5011377;28;20052;-80
2021/05/15 06:42:35;;;;;;;61.60;36.33;;;12.90;82.70;;;;;;5012985;28;20346;-82
2021/05/15 06:45:00;;;;;;;61.90;37.47;;;12.90;82.60;;;;;;5012298;28;20541;-82
2021/05/15 06:47:26;;;;;;;56.17;35.53;;;12.90;82.50;;;;;;4989817;28;20586;-80
2021/05/15 06:49:52;;;;;;;56.03;35.63;;;12.90;82.50;;;;;;5010192;28;20022;-82
2021/05/15 06:52:18;;;;;;;55.13;34.00;;;12.90;82.50;;;;;;5003474;28;20053;-84
2021/05/15 06:54:45;;;;;;;51.60;32.57;;;12.80;82.50;;;;;;5015152;28;20040;-82
2021/05/15 06:57:10;;;;;;;48.63;31.03;;;12.80;82.50;;;;;;5006830;28;20116;-83
2021/05/15 06:59:36;;;;;;;48.47;30.63;;;12.80;82.40;;;;;;5004913;28;20057;-83
2021/05/15 07:02:02;;;;;;;47.33;31.30;;;12.90;82.20;;;;;;5012952;28;20049;-83
2021/05/15 07:04:28;;;;;;;37.73;25.83;;;12.80;82.10;;;;;;4992889;28;20042;-84
2021/05/15 07:06:54;;;;;;;37.03;23.37;;;12.80;81.90;;;;;;5012794;28;20062;-84
2021/05/15 07:09:20;;;;;;;36.10;22.53;;;12.60;81.80;;;;;;4994248;28;20050;-86
2021/05/15 07:11:45;;;;;;;34.83;23.53;;;12.50;82.20;;;;;;5013168;28;20114;-84
2021/05/15 07:14:11;;;;;;;35.23;23.70;;;12.40;82.40;;;;;;5017239;28;20033;-85
2021/05/15 07:16:37;;;;;;;35.30;24.47;;;12.40;82.70;;;;;;5011846;28;20057;-84
2021/05/15 07:19:03;;;;;;;34.53;23.67;;;12.40;82.90;;;;;;5012288;28;20037;-84
2021/05/15 07:21:28;;;;;;;42.20;27.83;;;12.40;82.70;;;;;;5011333;28;20044;-83
2021/05/15 07:23:54;;;;;;;32.33;22.47;;;12.50;82.70;;;;;;4993960;28;20471;-82
2021/05/15 07:26:20;;;;;;;39.23;26.77;;;12.60;82.70;;;;;;5010235;28;20056;-86
2021/05/15 07:28:46;;;;;;;34.17;22.33;;;12.70;82.50;;;;;;4998387;28;20030;-83
2021/05/15 07:31:11;;;;;;;30.57;20.47;;;12.80;82.30;;;;;;4985927;28;20061;-82
2021/05/15 07:33:38;;;;;;;33.97;24.10;;;12.70;81.80;;;;;;5006947;28;20394;-83
2021/05/15 07:36:04;;;;;;;32.67;21.60;;;12.50;82.00;;;;;;4995258;28;20107;-81
2021/05/15 07:38:30;;;;;;;29.87;19.83;;;12.70;82.60;;;;;;5007554;28;20036;-84
2021/05/15 07:40:56;;;;;;;29.57;20.83;;;12.80;82.00;;;;;;5012950;28;20029;-83
2021/05/15 07:43:23;;;;;;;40.03;28.93;;;13.00;81.90;;;;;;5001264;28;20769;-84
2021/05/15 07:45:51;;;;;;;23.20;15.70;;;13.20;81.90;;;;;;5039767;28;20069;-80
2021/05/15 07:48:17;;;;;;;26.33;16.25;;;13.30;80.70;;;;;;5005925;28;20118;-80
2021/05/15 07:50:42;;;;;;;24.38;17.77;;;13.90;80.50;;;;;;5009564;28;20120;-79
2021/05/15 07:53:08;;;;;;;22.80;16.02;;;14.40;78.50;;;;;;4996000;28;20121;-79
2021/05/15 07:55:34;;;;;;;34.08;25.35;;;15.10;76.00;;;;;;5010910;28;20586;-79
2021/05/15 07:57:59;;;;;;;40.22;27.17;;;15.80;75.70;;;;;;5011527;28;20034;-78
2021/05/15 08:00:25;;;;;;;35.30;24.02;;;16.80;74.80;;;;;;5023608;28;20052;-83
2021/05/15 08:02:51;;;;;;;45.72;32.65;;;17.20;72.00;;;;;;5030357;28;20054;-79
2021/05/15 08:05:16;;;;;;;40.55;29.23;;;17.20;71.70;;;;;;5012438;28;20046;-79
2021/05/15 08:07:42;;;;;;;28.48;22.73;;;17.10;70.50;;;;;;5007741;28;20029;-79
2021/05/15 08:10:09;;;;;;;24.15;19.92;;;16.70;70.50;;;;;;4985679;28;20090;-78
2021/05/15 08:12:36;;;;;;;30.95;25.08;;;16.30;71.00;;;;;;5026681;28;20057;-80
2021/05/15 08:15:03;;;;;;;35.78;26.25;;;15.90;72.30;;;;;;5017366;28;20052;-79
2021/05/15 08:17:29;;;;;;;32.20;25.02;;;15.60;72.70;;;;;;5029505;28;20041;-81
2021/05/15 08:19:54;;;;;;;31.23;23.65;;;15.60;73.70;;;;;;4971814;28;20378;-79
2021/05/15 08:22:20;;;;;;;32.20;23.70;;;15.70;73.60;;;;;;5004554;28;20045;-80
2021/05/15 08:24:46;;;;;;;29.60;21.90;;;15.80;73.40;;;;;;5007297;28;20410;-79
2021/05/15 08:27:12;;;;;;;28.65;20.60;;;16.60;73.60;;;;;;4993027;28;20034;-79
2021/05/15 08:29:37;;;;;;;28.52;22.60;;;17.60;72.10;;;;;;4988198;28;20045;-80
2021/05/15 08:32:04;;;;;;;24.38;19.63;;;18.80;69.50;;;;;;4989591;28;20468;-79
2021/05/15 08:34:30;;;;;;;24.58;20.75;;;20.10;66.10;;;;;;5006609;28;20038;-81
2021/05/15 08:36:56;;;;;;;21.70;18.23;;;20.30;63.40;;;;;;4998891;28;20037;-82
2021/05/15 08:39:21;;;;;;;21.27;17.73;;;20.50;62.70;;;;;;4993747;28;20048;-82
2021/05/15 08:41:47;;;;;;;21.58;18.58;;;20.50;61.60;;;;;;5008698;28;20486;-82
2021/05/15 08:44:13;;;;;;;21.85;18.25;;;20.00;61.60;;;;;;5009178;28;20041;-80
2021/05/15 08:46:44;;;;;;;22.38;18.35;;;19.90;61.00;;;;;;4993062;28;20088;-81
2021/05/15 08:49:14;;;;;;;22.00;18.65;;;19.60;60.80;;;;;;5008597;28;20033;-81
2021/05/15 08:51:41;;;;;;;21.70;18.13;;;19.20;60.60;;;;;;5010695;28;20026;-82
2021/05/15 08:54:07;;;;;;;20.38;17.73;;;18.50;61.50;;;;;;4992644;28;20046;-82
2021/05/15 08:56:33;;;;;;;21.77;18.75;;;18.20;63.20;;;;;;4994714;28;20025;-83
2021/05/15 08:58:59;;;;;;;21.60;18.42;;;17.70;63.60;;;;;;5009264;28;20033;-82
2021/05/15 09:01:24;;;;;;;21.27;17.88;;;17.30;65.60;;;;;;5009628;28;20054;-82
2021/05/15 09:03:50;;;;;;;24.23;18.60;;;17.40;66.70;;;;;;5018878;28;20494;-81
2021/05/15 09:06:16;;;;;;;20.98;17.55;;;17.90;66.40;;;;;;4997465;28;20061;-81
2021/05/15 09:08:48;;;;;;;22.65;18.63;;;18.80;65.10;;;;;;4999323;28;20046;-82
2021/05/15 09:11:15;;;;;;;21.80;19.25;;;19.70;63.60;;;;;;4998749;28;20033;-81
2021/05/15 09:13:50;;;;;;;18.15;16.25;;;20.30;61.50;;;;;;5009177;28;20026;-82
2021/05/15 09:16:16;;;;;;;17.60;15.70;;;20.70;60.40;;;;;;4995123;28;20038;-81
2021/05/15 09:18:42;;;;;;;17.88;15.98;;;21.20;57.90;;;;;;4997328;28;20037;-82
2021/05/15 09:21:11;;;;;;;16.98;15.20;;;21.50;56.50;;;;;;4996237;28;20030;-81
2021/05/15 09:23:38;;;;;;;15.25;13.85;;;22.20;55.60;;;;;;5012120;28;20130;-82
2021/05/15 09:26:18;;;;;;;14.32;12.93;;;22.10;53.00;;;;;;5012407;28;20033;-78
2021/05/15 09:28:47;;;;;;;12.27;11.18;;;22.10;53.00;;;;;;5011740;28;20113;-78
2021/05/15 09:31:18;;;;;;;12.82;11.52;;;21.80;51.30;;;;;;5012896;28;20033;-80
2021/05/15 09:34:12;;;;;;;12.27;11.07;;;21.50;48.80;;;;;;5011831;28;20033;-78
2021/05/15 09:36:43;;;;;;;13.07;10.73;;;20.80;53.30;;;;;;5009805;28;20103;-79
2021/05/15 09:39:10;;;;;;;12.43;11.05;;;20.40;52.30;;;;;;5012475;28;20029;-78
2021/05/15 09:41:44;;;;;;;10.55;9.55;;;20.00;54.50;;;;;;5014051;28;20443;-77
2021/05/15 09:44:12;;;;;;;12.13;10.70;;;20.20;54.30;;;;;;5008816;28;20039;-79
2021/05/15 09:46:40;;;;;;;12.73;11.52;;;20.20;54.90;;;;;;4993812;28;20030;-78
2021/05/15 09:49:07;;;;;;;11.98;10.77;;;20.50;54.70;;;;;;5005362;28;20036;-77
2021/05/15 09:51:33;;;;;;;10.18;9.13;;;20.80;54.90;;;;;;5011847;28;20141;-77
2021/05/15 09:54:35;;;;;;;10.60;9.60;;;20.50;51.90;;;;;;5008029;28;20038;-79
2021/05/15 09:57:08;;;;;;;9.00;8.20;;;19.80;55.10;;;;;;4971851;28;20042;-79
2021/05/15 09:59:37;;;;;;;;;;;19.40;55.30;;;;;;5004479;28;20292;-79
2021/05/15 10:02:11;;;;;;;3.60;1.90;;;18.40;58.50;;;;;;5014980;28;20031;-79
2021/05/15 10:04:39;;;;;;;2.40;2.00;;;17.50;61.40;;;;;;5013350;28;20367;-86
2021/05/15 10:07:15;;;;;;;5.53;3.85;;;16.70;64.10;;;;;;5023425;28;20064;-87
2021/05/15 10:09:40;;;;;;;5.80;4.00;;;16.20;67.60;;;;;;5031387;28;20049;-85
2021/05/15 10:12:06;;;;;;;3.58;2.85;;;16.00;69.00;;;;;;5034591;28;20670;-87
2021/05/15 10:14:33;;;;;;;5.63;4.15;;;15.90;69.40;;;;;;5003647;28;20030;-86
2021/05/15 10:16:59;;;;;;;5.50;4.15;;;15.80;70.10;;;;;;5020376;28;20382;-84
2021/05/15 10:19:25;;;;;;;4.00;2.67;;;15.90;70.40;;;;;;5018459;28;20060;-83
2021/05/15 10:21:51;;;;;;;4.40;3.33;;;16.20;70.50;;;;;;5001350;28;20037;-86
2021/05/15 10:24:23;;;;;;;5.53;4.63;;;16.40;70.00;;;;;;5013387;28;20351;-89
2021/05/15 10:27:01;;;;;;;4.78;4.25;;;16.80;69.40;;;;;;5011546;28;20053;-86
2021/05/15 10:29:50;;;;;;;3.25;2.90;;;17.30;68.40;;;;;;5013801;28;20088;-84
2021/05/15 10:32:22;;;;;;;3.42;2.65;;;17.80;66.30;;;;;;5011911;28;20079;-83
2021/05/15 10:34:56;;;;;;;4.05;3.70;;;18.10;67.10;;;;;;5008695;28;20133;-84
2021/05/15 10:37:21;;;;;;;4.93;4.50;;;18.40;66.90;;;;;;5009631;28;20026;-83
2021/05/15 10:39:48;;;;;;;3.38;2.72;;;18.90;66.10;;;;;;4976081;28;20034;-83
2021/05/15 10:42:25;;;;;;;4.88;4.47;;;18.90;63.10;;;;;;4993157;28;20110;-82
2021/05/15 10:44:51;;;;;;;4.38;3.97;;;19.00;64.40;;;;;;5011975;28;20030;-82
2021/05/15 10:47:17;;;;;;;3.50;3.20;;;19.30;64.80;;;;;;5012002;28;20034;-83
2021/05/15 10:49:45;;;;;;;4.40;4.00;;;19.20;63.00;;;;;;4993748;28;20046;-82
2021/05/15 10:52:17;;;;;;;8.63;6.10;;;19.40;61.50;;;;;;5010931;28;20033;-83
2021/05/15 10:54:50;;;;;;;4.40;4.00;;;19.50;62.70;;;;;;5010955;28;20411;-83
2021/05/15 10:57:21;;;;;;;5.00;3.67;;;20.00;62.20;;;;;;5012509;28;20462;-80
2021/05/15 11:00:00;;;;;;;6.00;4.75;;;19.70;60.80;;;;;;5009392;28;20104;-83
2021/05/15 11:02:37;;;;;;;5.28;4.78;;;19.50;61.50;;;;;;5012845;28;20077;-83
2021/05/15 11:05:14;;;;;;;4.38;3.50;;;19.40;63.00;;;;;;4983420;28;20030;-81
2021/05/15 11:07:40;;;;;;;6.38;4.82;;;19.20;61.80;;;;;;5011022;28;20033;-83
2021/05/15 11:10:16;;;;;;;7.22;6.53;;;18.80;61.60;;;;;;5011060;28;20392;-83
2021/05/15 11:12:46;;;;;;;7.18;6.45;;;18.70;62.30;;;;;;5011944;28;20033;-82
2021/05/15 11:15:14;;;;;;;5.45;3.65;;;18.70;63.30;;;;;;4993412;28;20057;-82
2021/05/15 11:17:41;;;;;;;3.97;2.92;;;18.50;62.30;;;;;;4993487;28;20101;-83
2021/05/15 11:20:13;;;;;;;10.32;7.13;;;18.60;62.00;;;;;;5004951;28;20030;-83
2021/05/15 11:22:43;;;;;;;4.68;3.30;;;18.70;61.80;;;;;;5002280;28;20513;-85
2021/05/15 11:25:15;;;;;;;7.47;6.05;;;18.90;62.00;;;;;;5007733;28;20042;-84
2021/05/15 11:27:46;;;;;;;7.93;7.13;;;19.20;62.00;;;;;;5012275;28;20033;-83
2021/05/15 11:30:25;;;;;;;4.97;3.60;;;19.60;61.00;;;;;;4995594;28;20041;-82
2021/05/15 11:33:17;;;;;;;5.60;4.55;;;20.00;58.50;;;;;;5012485;28;20030;-83
2021/05/15 11:35:45;;;;;;;4.95;3.35;;;20.30;59.00;;;;;;5004449;28;20036;-84
2021/05/15 11:38:15;;;;;;;3.25;1.48;;;20.30;57.20;;;;;;5011432;28;20029;-82
2021/05/15 11:40:52;;;;;;;4.90;3.63;;;20.40;53.70;;;;;;5016147;28;20565;-83
2021/05/15 11:43:29;;;;;;;5.60;2.95;;;20.30;56.30;;;;;;5024879;28;20040;-81
2021/05/15 11:45:56;;;;;;;3.13;1.40;;;20.50;54.80;;;;;;5022748;28;20033;-80
2021/05/15 11:48:23;;;;;;;3.47;1.02;;;20.90;52.90;;;;;;5021470;28;20033;-79
2021/05/15 11:51:01;;;;;;;2.80;1.95;;;20.90;49.40;;;;;;5002613;28;20057;-81
2021/05/15 11:53:28;;;;;;;6.22;2.15;;;20.50;50.60;;;;;;5000102;28;20038;-83
2021/05/15 11:55:54;;;;;;;2.42;1.48;;;20.60;53.40;;;;;;4976674;28;20065;-82
2021/05/15 11:58:20;;;;;;;4.15;1.85;;;20.70;50.00;;;;;;4999393;28;20030;-79
2021/05/15 12:00:47;;;;;;;5.97;4.72;;;20.70;48.70;;;;;;5013040;28;20030;-81
2021/05/15 12:03:19;;;;;;;4.10;2.40;;;20.40;53.00;;;;;;5008702;28;20038;-81
2021/05/15 12:05:45;;;;;;;2.05;1.23;;;20.40;52.00;;;;;;4992803;28;20023;-79
2021/05/15 12:08:12;;;;;;;2.75;1.55;;;20.40;49.10;;;;;;4978713;28;20037;-81
2021/05/15 12:10:40;;;;;;;3.38;2.00;;;20.30;50.70;;;;;;5003028;28;20022;-82
2021/05/15 12:13:06;;;;;;;7.95;5.82;;;20.20;52.50;;;;;;5011830;28;20030;-85
2021/05/15 12:15:32;;;;;;;4.93;1.20;;;20.20;54.10;;;;;;5012030;28;20355;-80
2021/05/15 12:18:02;;;;;;;4.88;2.33;;;20.10;48.90;;;;;;5010913;28;20033;-81
2021/05/15 12:20:47;;;;;;;7.68;5.28;;;19.90;51.30;;;;;;4995327;28;20041;-81
2021/05/15 12:23:20;;;;;;;5.10;3.83;;;19.90;51.20;;;;;;5010655;28;20080;-81
2021/05/15 12:26:16;;;;;;;5.30;3.05;;;19.80;52.70;;;;;;4994552;28;20042;-82
2021/05/15 12:28:43;;;;;;;5.63;2.80;;;19.60;52.00;;;;;;4998813;28;20026;-80
2021/05/15 12:31:29;;;;;;;3.42;1.15;;;19.40;52.00;;;;;;5032063;28;20022;-82
2021/05/15 12:33:56;;;;;;;6.38;2.90;;;18.90;52.00;;;;;;5009952;28;20143;-82
2021/05/15 12:36:23;;;;;;;7.30;4.60;;;18.40;58.20;;;;;;5011107;28;20025;-87
2021/05/15 12:38:53;;;;;;;7.10;5.20;;;17.90;63.60;;;;;;5009315;28;20113;-85